createdAt,value
2022-08-26T00:14:59.042Z,54.20
2022-08-26T00:17:32.394Z,55.05
2022-08-26T00:20:14.742Z,52.10
2022-08-26T00:22:42.666Z,47.42
2022-08-26T00:25:12.123Z,45.75
2022-08-26T00:27:39.718Z,42.67
2022-08-26T00:30:12.223Z,44.90
2022-08-26T00:37:01.149Z,51.70
2022-08-26T00:39:28.892Z,62.53
2022-08-26T00:41:56.115Z,46.00
2022-08-26T00:47:01.398Z,49.22
2022-08-26T00:49:44.706Z,47.53
2022-08-26T00:52:16.379Z,54.45
2022-08-26T00:54:59.415Z,46.67
2022-08-26T00:57:50.787Z,48.78
2022-08-26T01:00:29.211Z,45.97
2022-08-26T01:02:57.646Z,55.55
2022-08-26T01:05:25.481Z,51.53
2022-08-26T01:07:52.629Z,53.63
2022-08-26T01:10:24.603Z,44.83
2022-08-26T01:13:01.568Z,47.65
2022-08-26T01:15:40.398Z,51.42
2022-08-26T01:18:10.337Z,53.97
2022-08-26T01:21:03.184Z,53.55
2022-08-26T01:23:37.771Z,52.75
2022-08-26T01:26:19.460Z,50.83
2022-08-26T01:32:43.008Z,51.88
2022-08-26T01:35:10.200Z,57.88
2022-08-26T01:37:40.359Z,57.97
2022-08-26T01:40:12.604Z,56.92
2022-08-26T01:42:42.181Z,53.92
2022-08-26T01:45:21.552Z,51.25
2022-08-26T01:47:49.986Z,56.00
2022-08-26T01:50:32.661Z,60.03
2022-08-26T01:53:34.291Z,57.78
2022-08-26T01:56:10.736Z,55.83
2022-08-26T01:58:42.519Z,54.70
2022-08-26T02:01:11.608Z,54.03
2022-08-26T02:04:10.165Z,55.03
2022-08-26T02:06:49.003Z,59.30
2022-08-26T02:09:22.412Z,64.10
2022-08-26T02:11:51.065Z,53.10
2022-08-26T02:14:28.174Z,58.30
2022-08-26T02:16:56.141Z,63.72
2022-08-26T02:19:32.030Z,51.83
2022-08-26T02:22:16.795Z,62.03
2022-08-26T02:25:08.155Z,61.45
2022-08-26T02:27:40.124Z,57.85
2022-08-26T02:30:25.149Z,57.63
2022-08-26T02:33:16.500Z,54.25
2022-08-26T02:35:46.730Z,57.50
2022-08-26T02:38:14.340Z,65.88
2022-08-26T02:40:43.879Z,55.95
2022-08-26T02:43:12.562Z,60.83
2022-08-26T02:45:41.153Z,50.13
2022-08-26T02:48:16.476Z,59.83
2022-08-26T02:55:41.920Z,56.35
2022-08-26T02:58:14.265Z,62.65
2022-08-26T03:00:53.257Z,54.10
2022-08-26T03:03:22.559Z,61.65
2022-08-26T03:05:54.240Z,50.75
2022-08-26T03:08:22.363Z,56.70
2022-08-26T03:10:50.152Z,58.50
2022-08-26T03:13:18.149Z,60.80
2022-08-26T03:15:45.917Z,54.38
2022-08-26T03:18:15.681Z,55.83
2022-08-26T03:23:12.539Z,58.45
2022-08-26T03:25:40.176Z,67.28
2022-08-26T03:28:09.527Z,71.10
2022-08-26T03:30:45.266Z,58.67
2022-08-26T03:36:35.113Z,60.10
2022-08-26T03:39:07.085Z,63.90
2022-08-26T03:41:36.770Z,52.33
2022-08-26T03:44:06.669Z,59.55
2022-08-26T03:46:34.251Z,59.05
2022-08-26T03:53:24.033Z,53.92
2022-08-26T03:55:51.929Z,61.35
2022-08-26T03:58:20.638Z,65.80
2022-08-26T04:00:48.335Z,59.63
2022-08-26T04:04:05.461Z,55.70
2022-08-26T04:07:42.047Z,64.22
2022-08-26T04:10:28.814Z,57.08
2022-08-26T04:12:58.856Z,61.42
2022-08-26T04:15:33.944Z,60.67
2022-08-26T04:18:01.508Z,56.42
2022-08-26T04:20:28.780Z,66.38
2022-08-26T04:22:58.680Z,64.75
2022-08-26T04:25:26.186Z,60.28
2022-08-26T04:27:53.352Z,62.53
2022-08-26T04:30:20.856Z,66.68
2022-08-26T04:32:49.269Z,65.82
2022-08-26T04:35:25.672Z,65.22
2022-08-26T04:37:58.521Z,68.47
2022-08-26T04:40:33.216Z,63.67
2022-08-26T04:43:00.549Z,63.92
2022-08-26T04:45:28.505Z,62.70
2022-08-26T04:47:58.846Z,65.15
2022-08-26T04:50:26.604Z,60.50
2022-08-26T04:56:16.670Z,58.15
2022-08-26T04:58:44.869Z,53.55
2022-08-26T05:01:33.234Z,62.55
2022-08-26T05:04:11.925Z,58.97
2022-08-26T05:06:48.479Z,58.15
2022-08-26T05:09:18.679Z,61.90
2022-08-26T05:11:48.421Z,59.42
2022-08-26T05:14:23.151Z,63.53
2022-08-26T05:16:59.489Z,64.18
2022-08-26T05:19:28.971Z,56.50
2022-08-26T05:24:23.750Z,51.35
2022-08-26T05:26:51.033Z,51.97
2022-08-26T05:29:18.594Z,63.10
2022-08-26T05:31:47.099Z,55.88
2022-08-26T05:34:14.917Z,56.63
2022-08-26T05:37:18.080Z,69.50
2022-08-26T05:45:17.169Z,59.85
2022-08-26T05:48:01.725Z,59.33
2022-08-26T05:50:29.287Z,60.42
2022-08-26T05:52:56.612Z,70.43
2022-08-26T05:55:23.885Z,56.65
2022-08-26T06:05:42.005Z,56.67
2022-08-26T06:08:11.365Z,59.38
2022-08-26T06:10:56.371Z,51.88
2022-08-26T06:13:26.860Z,58.67
2022-08-26T06:16:05.080Z,52.60
2022-08-26T06:18:46.040Z,47.58
2022-08-26T06:21:31.339Z,56.03
2022-08-26T06:27:16.446Z,47.05
2022-08-26T06:29:43.783Z,59.03
2022-08-26T06:32:12.824Z,48.00
2022-08-26T06:34:58.830Z,42.45
2022-08-26T06:37:31.714Z,46.40
2022-08-26T06:40:06.640Z,51.88
2022-08-26T06:42:36.458Z,50.38
2022-08-26T06:45:10.512Z,44.33
2022-08-26T06:47:38.380Z,46.35
2022-08-26T06:53:19.044Z,37.00
2022-08-26T06:55:47.128Z,45.67
2022-08-26T06:58:18.995Z,46.80
2022-08-26T07:00:49.439Z,42.78
2022-08-26T07:03:16.734Z,34.95
2022-08-26T07:05:45.388Z,42.53
2022-08-26T07:08:12.609Z,36.47
2022-08-26T07:10:40.559Z,35.40
2022-08-26T07:17:15.971Z,42.40
2022-08-26T07:19:43.682Z,43.85
2022-08-26T07:22:11.017Z,35.72
2022-08-26T07:24:42.364Z,38.05
2022-08-26T07:27:14.354Z,41.20
2022-08-26T07:29:43.510Z,35.38
2022-08-26T07:32:13.314Z,43.05
2022-08-26T07:34:41.769Z,35.42
2022-08-26T07:37:09.705Z,48.28
2022-08-26T07:39:37.762Z,41.33
2022-08-26T07:42:09.757Z,34.95
2022-08-26T07:44:49.760Z,33.85
2022-08-26T07:47:25.288Z,38.35
2022-08-26T07:49:56.636Z,31.60
2022-08-26T07:52:46.415Z,42.60
2022-08-26T07:55:23.099Z,40.08
2022-08-26T07:58:15.696Z,41.72
2022-08-26T08:01:45.040Z,28.73
2022-08-26T08:04:14.585Z,40.00
2022-08-26T08:06:43.846Z,34.45
2022-08-26T08:09:13.421Z,30.30
2022-08-26T08:11:46.817Z,37.75
2022-08-26T08:14:15.643Z,41.53
2022-08-26T08:16:46.835Z,44.42
2022-08-26T08:19:15.295Z,41.80
2022-08-26T08:26:25.095Z,39.05
2022-08-26T08:34:22.799Z,33.53
2022-08-26T08:36:53.224Z,33.63
2022-08-26T08:39:21.943Z,33.90
2022-08-26T08:42:08.333Z,45.58
2022-08-26T08:44:41.062Z,24.67
2022-08-26T08:48:12.869Z,37.60
2022-08-26T08:50:50.633Z,36.90
2022-08-26T08:53:57.492Z,38.03
2022-08-26T08:56:37.331Z,35.28
2022-08-26T08:59:12.691Z,32.50
2022-08-26T09:01:52.431Z,28.90
2022-08-26T09:04:51.802Z,29.92
2022-08-26T09:07:43.474Z,31.23
2022-08-26T09:10:29.257Z,35.17
2022-08-26T09:12:57.707Z,30.88
2022-08-26T09:15:39.822Z,29.33
2022-08-26T09:18:30.235Z,39.35
2022-08-26T09:21:10.503Z,38.75
2022-08-26T09:23:42.804Z,34.75
2022-08-26T09:26:41.269Z,29.60
2022-08-26T09:29:36.565Z,30.63
2022-08-26T09:32:24.873Z,30.90
2022-08-26T09:35:08.153Z,38.58
2022-08-26T09:37:58.846Z,32.22
2022-08-26T09:40:53.203Z,26.10
2022-08-26T09:56:27.829Z,39.78
2022-08-26T09:58:56.765Z,31.10
2022-08-26T10:01:52.270Z,31.83
2022-08-26T10:04:26.743Z,29.73
2022-08-26T10:07:00.700Z,30.52
2022-08-26T10:09:33.358Z,31.02
2022-08-26T10:12:10.810Z,30.60
2022-08-26T10:14:46.999Z,30.88
2022-08-26T10:17:33.566Z,28.63
2022-08-26T10:23:09.834Z,34.45
2022-08-26T10:25:55.216Z,27.80
2022-08-26T10:28:35.914Z,25.48
2022-08-26T10:31:12.716Z,26.38
2022-08-26T10:34:30.580Z,29.88
2022-08-26T10:37:14.725Z,27.02
2022-08-26T10:40:14.414Z,32.13
2022-08-26T10:43:11.029Z,30.02
2022-08-26T10:45:47.989Z,34.47
2022-08-26T10:48:24.907Z,35.25
2022-08-26T10:50:52.780Z,34.13
2022-08-26T10:53:24.854Z,41.10
2022-08-26T10:56:18.756Z,38.03
2022-08-26T10:59:15.437Z,34.88
2022-08-26T11:02:08.461Z,26.63
2022-08-26T11:04:48.193Z,19.83
2022-08-26T11:07:41.750Z,16.65
2022-08-26T11:10:21.403Z,14.57
2022-08-26T11:13:10.935Z,21.95
2022-08-26T11:15:45.138Z,14.63
2022-08-26T11:18:37.738Z,15.23
2022-08-26T11:21:50.690Z,16.70
2022-08-26T11:24:41.543Z,14.43
2022-08-26T11:27:12.380Z,19.35
2022-08-26T11:30:13.816Z,19.85
2022-08-26T11:32:45.473Z,21.13
2022-08-26T11:35:26.668Z,18.33
2022-08-26T11:38:22.135Z,14.88
2022-08-26T11:41:20.667Z,16.98
2022-08-26T11:43:53.249Z,17.17
2022-08-26T11:46:27.332Z,15.77
2022-08-26T11:49:02.842Z,19.67
2022-08-26T11:51:38.193Z,15.13
2022-08-26T11:54:30.493Z,10.70
2022-08-26T11:57:09.464Z,16.50
2022-08-26T11:59:42.382Z,16.52
2022-08-26T12:02:18.290Z,19.48
2022-08-26T12:04:49.804Z,17.13
2022-08-26T12:07:24.007Z,18.80
2022-08-26T12:09:56.603Z,12.02
2022-08-26T12:12:34.530Z,16.17
2022-08-26T12:15:10.273Z,13.88
2022-08-26T12:17:39.604Z,13.23
2022-08-26T12:21:12.995Z,9.10
2022-08-26T12:23:50.087Z,12.52
2022-08-26T12:26:34.781Z,18.20
2022-08-26T12:29:20.035Z,16.15
2022-08-26T12:31:48.493Z,14.07
2022-08-26T12:34:18.542Z,11.55
2022-08-26T12:36:55.430Z,12.07
2022-08-26T12:39:29.243Z,7.43
2022-08-26T12:42:01.363Z,11.50
2022-08-26T12:44:34.806Z,13.85
2022-08-26T12:47:16.676Z,9.90
2022-08-26T12:50:08.011Z,15.70
2022-08-26T12:52:44.317Z,16.20
2022-08-26T12:55:47.662Z,14.70
2022-08-26T12:58:35.397Z,18.33
2022-08-26T13:01:06.471Z,12.93
2022-08-26T13:03:33.712Z,18.85
2022-08-26T13:06:17.880Z,16.80
2022-08-26T13:08:49.259Z,15.68
2022-08-26T13:11:20.427Z,8.00
2022-08-26T13:13:52.007Z,7.63
2022-08-26T13:16:22.642Z,11.65
2022-08-26T13:18:57.867Z,16.27
2022-08-26T13:21:40.629Z,15.68
2022-08-26T13:24:13.501Z,12.05
2022-08-26T13:26:43.208Z,16.80
2022-08-26T13:29:11.942Z,20.73
2022-08-26T13:31:46.731Z,16.85
2022-08-26T13:34:19.041Z,18.25
2022-08-26T13:36:47.857Z,17.05
2022-08-26T13:39:15.802Z,21.40
2022-08-26T13:41:43.577Z,14.15
2022-08-26T13:44:10.999Z,13.20
2022-08-26T13:46:41.925Z,12.20
2022-08-26T13:49:10.777Z,15.45
2022-08-26T13:51:38.573Z,14.18
2022-08-26T13:54:06.339Z,20.15
2022-08-26T13:56:34.888Z,29.10
2022-08-26T13:59:03.162Z,15.75
2022-08-26T14:01:32.192Z,12.75
2022-08-26T14:03:59.745Z,21.95
2022-08-26T14:08:53.988Z,15.98
2022-08-26T14:11:21.531Z,14.45
2022-08-26T14:13:48.756Z,10.10
2022-08-26T14:16:22.766Z,11.77
2022-08-26T14:18:51.033Z,14.55
2022-08-26T14:21:18.773Z,20.63
2022-08-26T14:26:19.060Z,18.52
2022-08-26T14:28:58.948Z,10.68
2022-08-26T14:31:29.539Z,14.68
2022-08-26T14:34:03.476Z,20.98
2022-08-26T14:36:32.491Z,14.13
2022-08-26T14:39:06.628Z,11.32
2022-08-26T14:41:38.535Z,13.68
2022-08-26T14:44:10.670Z,14.63
2022-08-26T14:46:44.716Z,15.32
2022-08-26T14:49:12.539Z,14.63
2022-08-26T14:51:41.035Z,15.07
2022-08-26T14:54:12.871Z,21.98
2022-08-26T14:56:59.964Z,14.52
2022-08-26T14:59:32.886Z,21.48
2022-08-26T15:02:00.984Z,16.67
2022-08-26T15:04:28.738Z,12.25
2022-08-26T15:09:25.898Z,15.45
2022-08-26T15:11:53.819Z,17.15
2022-08-26T15:14:22.544Z,15.63
2022-08-26T15:16:53.179Z,14.50
2022-08-26T15:19:21.087Z,18.20
2022-08-26T15:21:49.333Z,14.35
2022-08-26T15:24:19.413Z,14.15
2022-08-26T15:26:47.468Z,13.77
2022-08-26T15:29:14.818Z,13.25
2022-08-26T15:31:42.892Z,18.48
2022-08-26T15:34:15.964Z,19.15
2022-08-26T15:36:46.268Z,17.20
2022-08-26T15:39:15.665Z,10.65
2022-08-26T15:41:43.511Z,11.32
2022-08-26T15:44:12.096Z,15.82
2022-08-26T15:46:46.512Z,17.30
2022-08-26T15:49:17.798Z,15.15
2022-08-26T15:51:47.909Z,12.93
2022-08-26T15:54:16.793Z,12.80
2022-08-26T15:56:44.870Z,11.50
2022-08-26T15:59:13.813Z,16.83
2022-08-26T16:06:53.894Z,19.23
2022-08-26T16:09:27.200Z,17.20
2022-08-26T16:11:56.178Z,20.50
2022-08-26T16:14:24.118Z,21.42
2022-08-26T16:21:32.589Z,28.80
2022-08-26T16:25:01.639Z,19.75
2022-08-26T16:27:29.620Z,16.38
2022-08-26T16:29:56.794Z,19.50
2022-08-26T16:32:31.361Z,22.77
2022-08-26T16:35:00.270Z,23.27
2022-08-26T16:38:35.032Z,20.88
2022-08-26T16:56:41.431Z,14.98
2022-08-26T16:59:19.699Z,14.73
2022-08-26T17:01:47.169Z,13.68
2022-08-26T17:04:14.449Z,13.07
2022-08-26T17:06:43.618Z,12.93
2022-08-26T17:09:10.837Z,13.98
2022-08-26T17:11:40.852Z,15.13
2022-08-26T17:14:08.394Z,13.13
2022-08-26T17:16:36.225Z,16.35
2022-08-26T17:21:35.545Z,14.50
2022-08-26T17:24:18.900Z,13.43
2022-08-26T17:26:50.054Z,13.07
2022-08-26T17:29:21.659Z,15.38
2022-08-26T17:32:29.272Z,14.85
2022-08-26T17:34:56.834Z,12.65
2022-08-26T17:37:24.371Z,17.63
2022-08-26T17:39:55.504Z,17.30
2022-08-26T17:42:31.439Z,14.48
2022-08-26T17:45:03.472Z,11.23
2022-08-26T17:47:31.663Z,13.73
2022-08-26T17:50:04.309Z,14.25
2022-08-26T17:52:32.996Z,13.25
2022-08-26T17:55:22.797Z,12.20
2022-08-26T17:57:53.458Z,10.23
2022-08-26T18:00:29.212Z,12.25
2022-08-26T18:03:19.584Z,15.82
2022-08-26T18:05:53.666Z,12.48
2022-08-26T18:08:21.170Z,14.07
2022-08-26T18:14:09.416Z,13.93
2022-08-26T18:16:47.248Z,13.70
2022-08-26T18:19:36.095Z,19.25
2022-08-26T18:22:09.009Z,18.90
2022-08-26T18:24:42.834Z,15.93
2022-08-26T18:27:26.725Z,12.43
2022-08-26T18:29:56.134Z,10.35
2022-08-26T18:32:23.994Z,10.82
2022-08-26T18:35:03.910Z,14.15
2022-08-26T18:37:50.565Z,9.20
2022-08-26T18:40:18.643Z,11.18
2022-08-26T18:42:49.368Z,8.32
2022-08-26T18:45:22.554Z,9.50
2022-08-26T18:50:17.463Z,13.25
2022-08-26T18:52:44.694Z,12.20
2022-08-26T18:55:12.083Z,9.27
2022-08-26T18:57:55.207Z,10.27
2022-08-26T19:00:22.675Z,10.38
2022-08-26T19:02:51.885Z,10.50
2022-08-26T19:05:35.311Z,9.88
2022-08-26T19:08:23.277Z,12.98
2022-08-26T19:10:51.612Z,12.10
2022-08-26T19:13:21.553Z,12.60
2022-08-26T19:15:50.316Z,10.93
2022-08-26T19:18:19.622Z,11.27
2022-08-26T19:20:47.935Z,13.10
2022-08-26T19:23:33.110Z,12.05
2022-08-26T19:26:04.050Z,9.93
2022-08-26T19:28:32.583Z,16.77
2022-08-26T19:31:00.137Z,12.32
2022-08-26T19:33:28.371Z,14.15
2022-08-26T19:35:57.568Z,15.30
2022-08-26T19:38:25.051Z,12.38
2022-08-26T19:40:55.107Z,17.35
2022-08-26T19:43:22.462Z,15.10
2022-08-26T19:45:50.342Z,11.93
2022-08-26T19:48:17.587Z,15.13
2022-08-26T19:50:46.067Z,18.25
2022-08-26T19:53:13.335Z,12.57
2022-08-26T19:55:40.507Z,11.77
2022-08-26T19:58:08.047Z,15.60
2022-08-26T20:00:39.626Z,16.42
2022-08-26T20:03:08.654Z,12.68
2022-08-26T20:05:40.413Z,15.30
2022-08-26T20:08:07.676Z,16.27
2022-08-26T20:10:39.268Z,11.65
2022-08-26T20:13:10.074Z,16.60
2022-08-26T20:15:37.385Z,19.88
2022-08-26T20:18:24.742Z,17.38
2022-08-26T20:21:10.871Z,15.68
2022-08-26T20:23:38.431Z,16.42
2022-08-26T20:26:08.653Z,16.48
2022-08-26T20:28:36.126Z,14.68
2022-08-26T20:31:03.584Z,16.52
2022-08-26T20:33:31.806Z,17.48
2022-08-26T20:36:15.431Z,19.67
2022-08-26T20:38:43.304Z,16.38
2022-08-26T20:41:11.093Z,18.55
2022-08-26T20:43:42.878Z,16.60
2022-08-26T20:46:17.403Z,16.88
2022-08-26T20:48:46.751Z,16.33
2022-08-26T20:51:16.514Z,17.00
2022-08-26T20:53:44.454Z,18.63
2022-08-26T20:56:13.477Z,17.42
2022-08-26T20:58:42.300Z,18.27
2022-08-26T21:01:18.022Z,17.02
2022-08-26T21:03:46.020Z,17.77
2022-08-26T21:06:15.043Z,14.27
2022-08-26T21:08:43.260Z,18.55
2022-08-26T21:11:12.006Z,16.45
2022-08-26T21:14:01.614Z,15.63
2022-08-26T21:16:28.625Z,17.63
2022-08-26T21:19:00.373Z,18.02
2022-08-26T21:21:28.704Z,16.08
2022-08-26T21:23:58.318Z,19.77
2022-08-26T21:26:27.041Z,18.60
2022-08-26T21:28:56.965Z,19.95
2022-08-26T21:31:27.014Z,17.63
2022-08-26T21:33:54.571Z,18.83
2022-08-26T21:36:23.427Z,21.58
2022-08-26T21:38:50.819Z,19.98
2022-08-26T21:41:22.211Z,19.73
2022-08-26T21:43:51.266Z,20.17
2022-08-26T21:46:22.135Z,19.90
2022-08-26T21:48:53.856Z,14.48
2022-08-26T21:51:23.685Z,16.92
2022-08-26T21:53:52.923Z,19.08
2022-08-26T21:56:22.038Z,16.65
2022-08-26T21:59:26.752Z,16.35
2022-08-26T22:02:01.710Z,18.05
2022-08-26T22:04:29.330Z,26.40
2022-08-26T22:07:00.242Z,21.63
2022-08-26T22:09:31.022Z,23.50
2022-08-26T22:12:00.609Z,16.60
2022-08-26T22:14:30.919Z,16.23
2022-08-26T22:17:00.024Z,13.25
2022-08-26T22:19:27.558Z,16.48
2022-08-26T22:21:55.706Z,17.60
2022-08-26T22:26:52.212Z,16.40
2022-08-26T22:29:20.075Z,13.50
2022-08-26T22:31:49.293Z,18.98
2022-08-26T22:34:17.427Z,14.38
2022-08-26T22:36:47.422Z,17.27
2022-08-26T22:39:16.906Z,14.07
2022-08-26T22:41:48.490Z,14.25
2022-08-26T22:44:17.223Z,17.70
2022-08-26T22:46:45.114Z,14.02
2022-08-26T22:49:16.345Z,17.27
2022-08-26T22:51:44.994Z,15.50
2022-08-26T22:54:13.257Z,15.02
2022-08-26T22:56:40.699Z,19.58
2022-08-26T22:59:08.992Z,17.02
2022-08-26T23:01:42.142Z,11.25
2022-08-26T23:04:10.536Z,15.73
2022-08-26T23:06:43.441Z,15.18
2022-08-26T23:09:18.216Z,13.98
2022-08-26T23:11:51.241Z,14.15
2022-08-26T23:14:19.771Z,15.15
2022-08-26T23:20:56.025Z,17.08
2022-08-26T23:23:23.741Z,15.85
2022-08-26T23:25:51.090Z,17.02
2022-08-26T23:28:18.555Z,16.90
2022-08-26T23:30:45.714Z,20.40
2022-08-26T23:33:17.155Z,19.42
2022-08-26T23:35:44.720Z,18.10
2022-08-26T23:38:16.630Z,21.65
2022-08-26T23:41:24.668Z,25.35
2022-08-26T23:43:51.986Z,21.38
2022-08-26T23:50:50.673Z,20.92
2022-08-26T23:53:21.715Z,21.05
2022-08-26T23:55:51.679Z,24.95
2022-08-26T23:58:20.962Z,19.52
